Gabo Island, Victoria

7:49 PM AEST on August 31, 2015 (GMT +1000)
Main Wharf, Mallacoota, Vic, Australia | | Change Station
CLOSE
Current Station
Personal Weather Station
Location: Mallacoota, VICTORIA
Elevation: 29 ft
Nearby Weather Stations

Elev 29 ft 37.55 °S, 149.76 °E | Updated 11 seconds ago

Clear
Clear
48.0 °F
Feels Like 48 °F
N
2.1
Wind Variable Wind from WNW
Gusts 11.0 mph

Today
High -- | Low -- °F
--% Chance of Precip.
Yesterday
High -- | Low -- °F
Precip. -- in
6:24 AM 5:38 PM
Waning Gibbous, 96% visible
Pressure 30.01 in
Visibility 6.2 miles
Clouds
Windchill 48 °F
Dew Point 46 °F
Humidity 91%
Rainfall 0.02 in
Snow Depth Not available.
UV Not available.
Pollen Not available.
Air Quality Not available.
Flu Activity Not available.
METAR YMER 310900Z AUTO 24009KT 9999 // NCD 11/04 Q1016
Pressure 30.01 in
Visibility 6.2 miles
Clouds
Windchill 48 °F
Dew Point 46 °F
Humidity 91%
Rainfall 0.02 in
Snow Depth Not available.
UV Not available.
Pollen Not available.
Air Quality Not available.
Flu Activity Not available.
METAR YMER 310900Z AUTO 24009KT 9999 // NCD 11/04 Q1016

10-Day Weather Forecast

×

Almanac

Astronomy

Aug. 31, 2015 Rise Set
Actual Time
Civil Twilight
Nautical Twilight
Astronomical Twilight
Moon
Length of Visible Light
Length of Day
Tomorrow will be .
, % of the Moon is Illuminated

Today's Extremes

Country Highs Country Lows

Community

WunderPhotos

Upload Photos

1,851,229 photos uploaded!

WunderBlogs® & News

Nearby

Air Quality

  Air Quality AQ Index Pollutant
Not available.

Snow Depth

Station Depth Elevation

Earthquake Activity

City Distance Mag. Time & Date
Minimum magnitude displayed is 2.5.

Coastal Water Temperatures

Place Temperature

Stations

Nearby Weather Stations

Station Location Temp. Windchill Dew Point Humidity Wind Precip. Elev Updated Type